Airfield :
LOGIN :

Register | Disclaimer

   EN    FR    IT 

 










Legend :    VFR   Marginal VFR   IFR   Intensive IFR   Very Intensive IFR
Visi :
Ceiling :
>= 8 km
>= 3000ft
5 to 8 km
1000 to 3000 ft
1500m to 5 km
500 to 1000 ft
800 to 1500m
200 to 500 ft
< 800m
< 200 ft
Symbols :   Thunderstorms  Fog  Heavy snow  Heavy precipitations  Wind > 20 kt
SIGMETs :     Misc.  Thunderstorms  Icing  Turbulence  Mountain Waves  Volcanic Ashes







- Airport Elevation : 140 ft


ESTL - Ljungbyhed

CURRENT METAR :
  • 230520Z AUTO 29008KT 6000 BR ///////// 17/17 Q1018 REDZ

EXPIRED METARs :
  • 230450Z AUTO 28008KT 3300 DZ ///////// 17/17 Q1018
  • 230420Z AUTO 28009KT 7000 BR ///////// 17/17 Q1018
  • 230350Z AUTO 28009KT 8000 BR ///////// 17/17 Q1018
  • 230320Z AUTO 28010KT 8000 BR ///////// 17/17 Q1018
  • 230250Z AUTO 27008KT 9000 BR ///////// 17/17 Q1018

Expired Forecast.
No reported NOTAMs for that airfield.



MET'MAP, your aeronautical weather chart ! - Copyright ORBIFLY December 2007 - Disclaimer

ORBIFLY MET'MAP TEAM :

Programming & Development : Alexandra Zaïnal
Concept & Development : Baudouin d'Aumeries
Co-Development & Prog : Marc-Olivier Méhu
Technical & hardware support : Manuel Goepfert

Contact : metmap@orbifly.com




SOURCES & CREDITS :

   NOAA